sensor_id;sensor_type;location;lat;lon;timestamp;pressure;altitude;pressure_sealevel;temperature;humidity
18813;BME280;9534;51.140;6.296;2023-11-21T00:00:41;67502.31;;;7.15;100.00
18813;BME280;9534;51.140;6.296;2023-11-21T00:04:44;67506.84;;;7.19;100.00
18813;BME280;9534;51.140;6.296;2023-11-21T00:08:47;67509.84;;;7.24;100.00
18813;BME280;9534;51.140;6.296;2023-11-21T00:12:51;67506.84;;;7.19;100.00
18813;BME280;9534;51.140;6.296;2023-11-21T00:16:57;67511.00;;;7.25;100.00
18813;BME280;9534;51.140;6.296;2023-11-21T00:21:00;67509.72;;;7.31;100.00
18813;BME280;9534;51.140;6.296;2023-11-21T00:25:03;67520.81;;;7.36;100.00
18813;BME280;9534;51.140;6.296;2023-11-21T00:29:07;67535.31;;;7.44;100.00
18813;BME280;9534;51.140;6.296;2023-11-21T00:33:11;67532.91;;;7.49;100.00
18813;BME280;9534;51.140;6.296;2023-11-21T00:37:14;67545.97;;;7.51;100.00
18813;BME280;9534;51.140;6.296;2023-11-21T00:41:17;67537.88;;;7.51;100.00
18813;BME280;9534;51.140;6.296;2023-11-21T00:45:22;67539.88;;;7.48;100.00
18813;BME280;9534;51.140;6.296;2023-11-21T00:49:25;67543.28;;;7.51;100.00
18813;BME280;9534;51.140;6.296;2023-11-21T00:53:29;67541.72;;;7.52;100.00
18813;BME280;9534;51.140;6.296;2023-11-21T00:57:32;67554.50;;;7.58;100.00
18813;BME280;9534;51.140;6.296;2023-11-21T01:01:37;67545.13;;;7.55;100.00
18813;BME280;9534;51.140;6.296;2023-11-21T01:05:41;67555.09;;;7.59;100.00
18813;BME280;9534;51.140;6.296;2023-11-21T01:09:43;67552.69;;;7.64;100.00
18813;BME280;9534;51.140;6.296;2023-11-21T01:13:46;67554.78;;;7.63;100.00
18813;BME280;9534;51.140;6.296;2023-11-21T01:17:51;67550.25;;;7.59;100.00
18813;BME280;9534;51.140;6.296;2023-11-21T01:21:54;67551.38;;;7.60;100.00
18813;BME280;9534;51.140;6.296;2023-11-21T01:25:59;67548.84;;;7.63;100.00
18813;BME280;9534;51.140;6.296;2023-11-21T01:30:02;67554.25;;;7.63;100.00
18813;BME280;9534;51.140;6.296;2023-11-21T01:34:07;67557.66;;;7.66;100.00
18813;BME280;9534;51.140;6.296;2023-11-21T01:38:10;67556.50;;;7.65;100.00
18813;BME280;9534;51.140;6.296;2023-11-21T01:42:13;67567.31;;;7.74;100.00
18813;BME280;9534;51.140;6.296;2023-11-21T01:46:17;67575.72;;;7.79;100.00
18813;BME280;9534;51.140;6.296;2023-11-21T01:50:23;67576.13;;;7.77;100.00
18813;BME280;9534;51.140;6.296;2023-11-21T01:54:27;67575.13;;;7.79;100.00
18813;BME280;9534;51.140;6.296;2023-11-21T01:58:32;67569.03;;;7.76;100.00
18813;BME280;9534;51.140;6.296;2023-11-21T02:02:35;67567.91;;;7.75;100.00
18813;BME280;9534;51.140;6.296;2023-11-21T02:06:39;67567.91;;;7.75;100.00
18813;BME280;9534;51.140;6.296;2023-11-21T02:10:42;67560.66;;;7.71;100.00
18813;BME280;9534;51.140;6.296;2023-11-21T02:14:45;67560.22;;;7.73;100.00
18813;BME280;9534;51.140;6.296;2023-11-21T02:18:50;67561.94;;;7.74;100.00
18813;BME280;9534;51.140;6.296;2023-11-21T02:22:56;67570.16;;;7.77;100.00
18813;BME280;9534;51.140;6.296;2023-11-21T02:27:01;67570.16;;;7.77;100.00
18813;BME280;9534;51.140;6.296;2023-11-21T02:31:04;67567.91;;;7.75;100.00
18813;BME280;9534;51.140;6.296;2023-11-21T02:35:07;67565.75;;;7.75;100.00
18813;BME280;9534;51.140;6.296;2023-11-21T02:39:12;67567.47;;;7.77;100.00
18813;BME280;9534;51.140;6.296;2023-11-21T02:43:15;67563.34;;;7.71;100.00
18813;BME280;9534;51.140;6.296;2023-11-21T02:47:18;67568.31;;;7.73;100.00
18813;BME280;9534;51.140;6.296;2023-11-21T02:51:22;67557.94;;;7.71;100.00
18813;BME280;9534;51.140;6.296;2023-11-21T02:55:27;67560.06;;;7.70;100.00
18813;BME280;9534;51.140;6.296;2023-11-21T02:59:30;67568.88;;;7.73;100.00
18813;BME280;9534;51.140;6.296;2023-11-21T03:03:33;67564.06;;;7.74;100.00
18813;BME280;9534;51.140;6.296;2023-11-21T03:07:36;67568.88;;;7.73;100.00
18813;BME280;9534;51.140;6.296;2023-11-21T03:11:40;67569.47;;;7.74;100.00
18813;BME280;9534;51.140;6.296;2023-11-21T03:15:43;67565.31;;;7.68;100.00
18813;BME280;9534;51.140;6.296;2023-11-21T03:19:46;67553.41;;;7.67;100.00
18813;BME280;9534;51.140;6.296;2023-11-21T03:23:49;67559.34;;;7.67;100.00
18813;BME280;9534;51.140;6.296;2023-11-21T03:27:55;67565.63;;;7.73;100.00
18813;BME280;9534;51.140;6.296;2023-11-21T03:31:58;67556.22;;;7.69;100.00
18813;BME280;9534;51.140;6.296;2023-11-21T03:36:03;67564.06;;;7.74;100.00
18813;BME280;9534;51.140;6.296;2023-11-21T03:40:06;67566.19;;;7.73;100.00
18813;BME280;9534;51.140;6.296;2023-11-21T03:44:12;67572.28;;;7.76;100.00
18813;BME280;9534;51.140;6.296;2023-11-21T03:48:15;67569.59;;;7.76;100.00
18813;BME280;9534;51.140;6.296;2023-11-21T03:52:18;67565.91;;;7.78;100.00
18813;BME280;9534;51.140;6.296;2023-11-21T03:56:21;67571.88;;;7.78;100.00
18813;BME280;9534;51.140;6.296;2023-11-21T04:00:26;67573.56;;;7.80;100.00
18813;BME280;9534;51.140;6.296;2023-11-21T04:04:29;67572.00;;;7.81;100.00
18813;BME280;9534;51.140;6.296;2023-11-21T04:08:32;67574.16;;;7.80;100.00
18813;BME280;9534;51.140;6.296;2023-11-21T04:12:35;67575.84;;;7.82;100.00
18813;BME280;9534;51.140;6.296;2023-11-21T04:16:40;67578.13;;;7.84;100.00
18813;BME280;9534;51.140;6.296;2023-11-21T04:20:43;67575.59;;;7.86;100.00
18813;BME280;9534;51.140;6.296;2023-11-21T04:24:46;67583.81;;;7.89;100.00
18813;BME280;9534;51.140;6.296;2023-11-21T04:28:50;67581.69;;;7.89;100.00
18813;BME280;9534;51.140;6.296;2023-11-21T04:32:55;67584.97;;;7.90;100.00
18813;BME280;9534;51.140;6.296;2023-11-21T04:36:58;67583.41;;;7.91;100.00
18813;BME280;9534;51.140;6.296;2023-11-21T04:41:01;67592.38;;;7.96;100.00
18813;BME280;9534;51.140;6.296;2023-11-21T04:45:05;67590.81;;;7.97;100.00
18813;BME280;9534;51.140;6.296;2023-11-21T04:49:13;67596.94;;;8.00;100.00
18813;BME280;9534;51.140;6.296;2023-11-21T04:53:16;67593.50;;;7.97;100.00
18813;BME280;9534;51.140;6.296;2023-11-21T04:57:20;67592.38;;;7.96;100.00
18813;BME280;9534;51.140;6.296;2023-11-21T05:01:23;67592.94;;;7.97;100.00
18813;BME280;9534;51.140;6.296;2023-11-21T05:05:27;67592.38;;;7.96;100.00
18813;BME280;9534;51.140;6.296;2023-11-21T05:09:31;67597.47;;;8.01;100.00
18813;BME280;9534;51.140;6.296;2023-11-21T05:13:34;67595.22;;;7.99;100.00
18813;BME280;9534;51.140;6.296;2023-11-21T05:17:37;67599.75;;;8.03;100.00
18813;BME280;9534;51.140;6.296;2023-11-21T05:21:45;67603.19;;;8.06;100.00
18813;BME280;9534;51.140;6.296;2023-11-21T05:25:48;67602.03;;;8.05;100.00
18813;BME280;9534;51.140;6.296;2023-11-21T05:29:51;67604.31;;;8.07;100.00
18813;BME280;9534;51.140;6.296;2023-11-21T05:33:55;67608.16;;;8.08;100.00
18813;BME280;9534;51.140;6.296;2023-11-21T05:38:00;67606.59;;;8.09;100.00
18813;BME280;9534;51.140;6.296;2023-11-21T05:42:04;67604.31;;;8.07;100.00
18813;BME280;9534;51.140;6.296;2023-11-21T05:46:08;67606.59;;;8.09;100.00
18813;BME280;9534;51.140;6.296;2023-11-21T05:50:13;67612.72;;;8.12;100.00
18813;BME280;9534;51.140;6.296;2023-11-21T05:54:18;67607.91;;;8.12;100.00
18813;BME280;9534;51.140;6.296;2023-11-21T05:58:23;67611.16;;;8.13;100.00
18813;BME280;9534;51.140;6.296;2023-11-21T06:02:27;67606.03;;;8.08;100.00
18813;BME280;9534;51.140;6.296;2023-11-21T06:06:31;67601.19;;;8.09;100.00
18813;BME280;9534;51.140;6.296;2023-11-21T06:10:36;67606.19;;;8.11;100.00
18813;BME280;9534;51.140;6.296;2023-11-21T06:14:48;67605.88;;;8.06;100.00
18813;BME280;9534;51.140;6.296;2023-11-21T06:18:53;67607.72;;;8.10;100.00
18813;BME280;9534;51.140;6.296;2023-11-21T06:22:59;67609.28;;;8.09;100.00
18813;BME280;9534;51.140;6.296;2023-11-21T06:27:23;67614.56;;;8.16;100.00
18813;BME280;9534;51.140;6.296;2023-11-21T06:31:32;67605.75;;;8.13;100.00
18813;BME280;9534;51.140;6.296;2023-11-21T06:35:36;67611.56;;;8.11;100.00
18813;BME280;9534;51.140;6.296;2023-11-21T06:39:39;67612.28;;;8.14;100.00
18813;BME280;9534;51.140;6.296;2023-11-21T06:43:48;67613.44;;;8.15;100.00
18813;BME280;9534;51.140;6.296;2023-11-21T06:47:52;67613.28;;;8.12;100.00
18813;BME280;9534;51.140;6.296;2023-11-21T06:51:55;67614.56;;;8.16;100.00
18813;BME280;9534;51.140;6.296;2023-11-21T06:56:02;67616.84;;;8.18;100.00
18813;BME280;9534;51.140;6.296;2023-11-21T07:00:09;67615.00;;;8.14;100.00
18813;BME280;9534;51.140;6.296;2023-11-21T07:04:16;67615.28;;;8.19;100.00
18813;BME280;9534;51.140;6.296;2023-11-21T07:08:20;67609.44;;;8.11;100.00
18813;BME280;9534;51.140;6.296;2023-11-21T07:12:30;67614.56;;;8.16;100.00
18813;BME280;9534;51.140;6.296;2023-11-21T07:16:39;67613.00;;;8.17;100.00
18813;BME280;9534;51.140;6.296;2023-11-21T07:20:44;67618.28;;;8.14;100.00
18813;BME280;9534;51.140;6.296;2023-11-21T07:24:48;67616.84;;;8.18;100.00
18813;BME280;9534;51.140;6.296;2023-11-21T07:28:56;67619.41;;;8.15;100.00
18813;BME280;9534;51.140;6.296;2023-11-21T07:33:04;67614.88;;;8.21;100.00
18813;BME280;9534;51.140;6.296;2023-11-21T07:37:11;67626.53;;;8.26;100.00
18813;BME280;9534;51.140;6.296;2023-11-21T07:41:14;67639.66;;;8.38;100.00
18813;BME280;9534;51.140;6.296;2023-11-21T07:45:32;67644.22;;;8.42;100.00
18813;BME280;9534;51.140;6.296;2023-11-21T07:49:41;67638.34;;;8.34;100.00
18813;BME280;9534;51.140;6.296;2023-11-21T07:53:49;67642.94;;;8.48;100.00
18813;BME280;9534;51.140;6.296;2023-11-21T07:57:57;67654.47;;;8.51;100.00
18813;BME280;9534;51.140;6.296;2023-11-21T08:02:03;67653.63;;;8.55;100.00
18813;BME280;9534;51.140;6.296;2023-11-21T08:06:10;67653.63;;;8.55;100.00
18813;BME280;9534;51.140;6.296;2023-11-21T08:10:19;67656.16;;;8.52;100.00
18813;BME280;9534;51.140;6.296;2023-11-21T08:14:24;67660.16;;;8.56;100.00
18813;BME280;9534;51.140;6.296;2023-11-21T08:18:30;67666.97;;;8.61;100.00
18813;BME280;9534;51.140;6.296;2023-11-21T08:22:40;67669.25;;;8.63;100.00
18813;BME280;9534;51.140;6.296;2023-11-21T08:26:47;67671.41;;;8.63;100.00
18813;BME280;9534;51.140;6.296;2023-11-21T08:30:50;67664.13;;;8.59;100.00
18813;BME280;9534;51.140;6.296;2023-11-21T08:34:54;67666.97;;;8.61;100.00
18813;BME280;9534;51.140;6.296;2023-11-21T08:38:59;67683.22;;;8.71;100.00
18813;BME280;9534;51.140;6.296;2023-11-21T08:43:06;67680.94;;;8.78;100.00
18813;BME280;9534;51.140;6.296;2023-11-21T08:47:10;67678.38;;;8.71;100.00
18813;BME280;9534;51.140;6.296;2023-11-21T08:51:15;67687.50;;;8.79;100.00
18813;BME280;9534;51.140;6.296;2023-11-21T08:55:21;67699.19;;;8.85;100.00
18813;BME280;9534;51.140;6.296;2023-11-21T08:59:25;67709.72;;;9.08;100.00
18813;BME280;9534;51.140;6.296;2023-11-21T09:03:29;67718.28;;;9.06;100.00
18813;BME280;9534;51.140;6.296;2023-11-21T09:07:34;67693.19;;;8.84;100.00
18813;BME280;9534;51.140;6.296;2023-11-21T09:11:41;67700.03;;;8.90;100.00
18813;BME280;9534;51.140;6.296;2023-11-21T09:15:48;67690.91;;;8.82;100.00
18813;BME280;9534;51.140;6.296;2023-11-21T09:19:52;67709.44;;;9.03;100.00
18813;BME280;9534;51.140;6.296;2023-11-21T09:23:56;67716.00;;;9.04;100.00
18813;BME280;9534;51.140;6.296;2023-11-21T09:28:05;67736.66;;;9.25;100.00
18813;BME280;9534;51.140;6.296;2023-11-21T09:32:10;67747.06;;;9.36;100.00
18813;BME280;9534;51.140;6.296;2023-11-21T09:36:16;67722.25;;;9.10;100.00
18813;BME280;9534;51.140;6.296;2023-11-21T09:40:21;67745.63;;;9.30;100.00
18813;BME280;9534;51.140;6.296;2023-11-21T09:44:30;67741.06;;;9.26;100.00
18813;BME280;9534;51.140;6.296;2023-11-21T09:48:36;67765.16;;;9.50;100.00
18813;BME280;9534;51.140;6.296;2023-11-21T09:52:44;67779.25;;;9.60;100.00
18813;BME280;9534;51.140;6.296;2023-11-21T09:56:51;67774.84;;;9.58;100.00
18813;BME280;9534;51.140;6.296;2023-11-21T10:00:57;67758.19;;;9.41;100.00
18813;BME280;9534;51.140;6.296;2023-11-21T10:05:03;67751.47;;;9.38;100.00
18813;BME280;9534;51.140;6.296;2023-11-21T10:09:08;67763.44;;;9.48;100.00
18813;BME280;9534;51.140;6.296;2023-11-21T10:13:14;67750.91;;;9.37;100.00
18813;BME280;9534;51.140;6.296;2023-11-21T10:17:24;67727.53;;;9.17;100.00
18813;BME280;9534;51.140;6.296;2023-11-21T10:21:33;67761.31;;;9.49;100.00
18813;BME280;9534;51.140;6.296;2023-11-21T10:25:36;67769.56;;;9.51;100.00
18813;BME280;9534;51.140;6.296;2023-11-21T10:29:40;67774.69;;;9.65;100.00
18813;BME280;9534;51.140;6.296;2023-11-21T10:33:45;67778.97;;;9.64;100.00
18813;BME280;9534;51.140;6.296;2023-11-21T10:37:50;67790.09;;;9.69;100.00
18813;BME280;9534;51.140;6.296;2023-11-21T10:42:03;67805.78;;;9.87;100.00
18813;BME280;9534;51.140;6.296;2023-11-21T10:46:07;67803.78;;;9.81;100.00
18813;BME280;9534;51.140;6.296;2023-11-21T10:50:14;67801.22;;;9.83;100.00
18813;BME280;9534;51.140;6.296;2023-11-21T10:54:22;67809.63;;;9.88;100.00
18813;BME280;9534;51.140;6.296;2023-11-21T10:58:28;67833.44;;;10.07;100.00
18813;BME280;9534;51.140;6.296;2023-11-21T11:02:33;67846.31;;;10.23;100.00
18813;BME280;9534;51.140;6.296;2023-11-21T11:06:39;67863.13;;;10.33;100.00
18813;BME280;9534;51.140;6.296;2023-11-21T11:10:42;67881.53;;;10.51;100.00
18813;BME280;9534;51.140;6.296;2023-11-21T11:14:48;67859.72;;;10.39;100.00
18813;BME280;9534;51.140;6.296;2023-11-21T11:18:52;67895.09;;;10.61;100.00
18813;BME280;9534;51.140;6.296;2023-11-21T11:22:59;67902.38;;;10.65;100.00
18813;BME280;9534;51.140;6.296;2023-11-21T11:27:11;67899.94;;;10.70;100.00
18813;BME280;9534;51.140;6.296;2023-11-21T11:31:22;67883.81;;;10.53;100.00
18813;BME280;9534;51.140;6.296;2023-11-21T11:35:34;67923.63;;;10.86;100.00
18813;BME280;9534;51.140;6.296;2023-11-21T11:39:47;67938.50;;;10.99;100.00
18813;BME280;9534;51.140;6.296;2023-11-21T11:43:53;68048.19;;;12.04;100.00
18813;BME280;9534;51.140;6.296;2023-11-21T11:47:58;68059.47;;;12.11;100.00
18813;BME280;9534;51.140;6.296;2023-11-21T11:56:27;68041.03;;;11.93;100.00
18813;BME280;9534;51.140;6.296;2023-11-21T12:00:33;68057.59;;;12.07;100.00
18813;BME280;9534;51.140;6.296;2023-11-21T12:04:40;68090.19;;;12.35;100.00
18813;BME280;9534;51.140;6.296;2023-11-21T12:08:44;68193.19;;;13.25;100.00
18813;BME280;9534;51.140;6.296;2023-11-21T12:12:51;68238.13;;;13.59;100.00
18813;BME280;9534;51.140;6.296;2023-11-21T12:16:55;68046.75;;;11.98;100.00
18813;BME280;9534;51.140;6.296;2023-11-21T12:20:59;67992.88;;;11.48;100.00
18813;BME280;9534;51.140;6.296;2023-11-21T12:25:02;67978.19;;;11.38;100.00
18813;BME280;9534;51.140;6.296;2023-11-21T12:29:08;67944.19;;;11.04;100.00
18813;BME280;9534;51.140;6.296;2023-11-21T12:33:12;67945.47;;;11.07;100.00
18813;BME280;9534;51.140;6.296;2023-11-21T12:37:19;67929.34;;;10.91;100.00
18813;BME280;9534;51.140;6.296;2023-11-21T12:41:24;67906.78;;;10.76;100.00
18813;BME280;9534;51.140;6.296;2023-11-21T12:45:30;67917.50;;;10.83;100.00
18813;BME280;9534;51.140;6.296;2023-11-21T12:49:33;67907.94;;;10.77;100.00
18813;BME280;9534;51.140;6.296;2023-11-21T12:53:37;67882.09;;;10.52;100.00
18813;BME280;9534;51.140;6.296;2023-11-21T12:57:41;67877.97;;;10.46;100.00
18813;BME280;9534;51.140;6.296;2023-11-21T13:01:46;67869.97;;;10.39;100.00
18813;BME280;9534;51.140;6.296;2023-11-21T13:05:53;67868.84;;;10.38;100.00
18813;BME280;9534;51.140;6.296;2023-11-21T13:09:59;67868.41;;;10.40;100.00
18813;BME280;9534;51.140;6.296;2023-11-21T13:14:07;67864.00;;;10.38;100.00
18813;BME280;9534;51.140;6.296;2023-11-21T13:18:14;67871.81;;;10.43;100.00
18813;BME280;9534;51.140;6.296;2023-11-21T13:22:20;67879.53;;;10.45;100.00
18813;BME280;9534;51.140;6.296;2023-11-21T13:26:24;67885.53;;;10.55;100.00
18813;BME280;9534;51.140;6.296;2023-11-21T13:30:28;67889.81;;;10.63;100.00
18813;BME280;9534;51.140;6.296;2023-11-21T13:34:37;67887.09;;;10.54;100.00
18813;BME280;9534;51.140;6.296;2023-11-21T13:38:40;67901.22;;;10.73;100.00
18813;BME280;9534;51.140;6.296;2023-11-21T13:42:46;67891.25;;;10.60;100.00
18813;BME280;9534;51.140;6.296;2023-11-21T13:46:49;67922.50;;;10.85;100.00
18813;BME280;9534;51.140;6.296;2023-11-21T13:50:55;67898.81;;;10.69;100.00
18813;BME280;9534;51.140;6.296;2023-11-21T13:54:59;67880.53;;;10.53;100.00
18813;BME280;9534;51.140;6.296;2023-11-21T13:59:08;67890.09;;;10.59;100.00
18813;BME280;9534;51.140;6.296;2023-11-21T14:03:23;67922.50;;;10.85;100.00
18813;BME280;9534;51.140;6.296;2023-11-21T14:07:36;67923.34;;;10.90;100.00
18813;BME280;9534;51.140;6.296;2023-11-21T14:11:39;67952.91;;;11.13;100.00
18813;BME280;9534;51.140;6.296;2023-11-21T14:15:49;67924.78;;;10.87;100.00
18813;BME280;9534;51.140;6.296;2023-11-21T14:19:56;67925.50;;;10.90;100.00
18813;BME280;9534;51.140;6.296;2023-11-21T14:24:01;67919.06;;;10.82;100.00
18813;BME280;9534;51.140;6.296;2023-11-21T14:28:04;67911.06;;;10.75;100.00
18813;BME280;9534;51.140;6.296;2023-11-21T14:32:09;67902.66;;;10.70;100.00
18813;BME280;9534;51.140;6.296;2023-11-21T14:36:13;67892.38;;;10.61;100.00
18813;BME280;9534;51.140;6.296;2023-11-21T14:40:20;67871.81;;;10.43;100.00
18813;BME280;9534;51.140;6.296;2023-11-21T14:44:26;67864.56;;;10.39;100.00
18813;BME280;9534;51.140;6.296;2023-11-21T14:48:34;67858.28;;;10.33;100.00
18813;BME280;9534;51.140;6.296;2023-11-21T14:52:44;67859.84;;;10.32;100.00
18813;BME280;9534;51.140;6.296;2023-11-21T14:57:03;67862.97;;;10.40;100.00
18813;BME280;9534;51.140;6.296;2023-11-21T15:01:07;67859.13;;;10.29;100.00
18813;BME280;9534;51.140;6.296;2023-11-21T15:05:13;67850.44;;;10.29;100.00
18813;BME280;9534;51.140;6.296;2023-11-21T15:09:18;67851.16;;;10.22;100.00
18813;BME280;9534;51.140;6.296;2023-11-21T15:13:38;67841.47;;;10.14;100.00
18813;BME280;9534;51.140;6.296;2023-11-21T15:17:43;67824.59;;;10.04;100.00
18813;BME280;9534;51.140;6.296;2023-11-21T15:21:47;67810.19;;;9.89;100.00
18813;BME280;9534;51.140;6.296;2023-11-21T15:25:51;67806.78;;;9.86;100.00
18813;BME280;9534;51.140;6.296;2023-11-21T15:29:56;67808.34;;;9.85;100.00
18813;BME280;9534;51.140;6.296;2023-11-21T15:34:00;67810.50;;;9.84;100.00
18813;BME280;9534;51.140;6.296;2023-11-21T15:38:03;67802.38;;;9.84;100.00
18813;BME280;9534;51.140;6.296;2023-11-21T15:42:09;67799.94;;;9.80;100.00
18813;BME280;9534;51.140;6.296;2023-11-21T15:46:15;67802.50;;;9.78;100.00
18813;BME280;9534;51.140;6.296;2023-11-21T15:50:20;67799.94;;;9.80;100.00
18813;BME280;9534;51.140;6.296;2023-11-21T15:54:24;67800.50;;;9.81;100.00
18813;BME280;9534;51.140;6.296;2023-11-21T15:58:31;67797.66;;;9.78;100.00
18813;BME280;9534;51.140;6.296;2023-11-21T16:02:37;67791.38;;;9.73;100.00
18813;BME280;9534;51.140;6.296;2023-11-21T16:06:41;67790.09;;;9.69;100.00
18813;BME280;9534;51.140;6.296;2023-11-21T16:10:45;67781.00;;;9.71;100.00
18813;BME280;9534;51.140;6.296;2023-11-21T16:14:49;67778.25;;;9.61;100.00
18813;BME280;9534;51.140;6.296;2023-11-21T16:18:54;67782.09;;;9.62;100.00
18813;BME280;9534;51.140;6.296;2023-11-21T16:22:57;67779.81;;;9.60;100.00
18813;BME280;9534;51.140;6.296;2023-11-21T16:27:01;67779.41;;;9.62;100.00
18813;BME280;9534;51.140;6.296;2023-11-21T16:31:06;67783.25;;;9.63;100.00
18813;BME280;9534;51.140;6.296;2023-11-21T16:35:11;67768.72;;;9.55;100.00
18813;BME280;9534;51.140;6.296;2023-11-21T16:39:15;67768.00;;;9.52;100.00
18813;BME280;9534;51.140;6.296;2023-11-21T16:43:21;67767.28;;;9.49;100.00
18813;BME280;9534;51.140;6.296;2023-11-21T16:47:24;67766.13;;;9.48;100.00
18813;BME280;9534;51.140;6.296;2023-11-21T16:51:32;67755.47;;;9.41;100.00
18813;BME280;9534;51.140;6.296;2023-11-21T16:55:35;67758.91;;;9.44;100.00
18813;BME280;9534;51.140;6.296;2023-11-21T16:59:39;67750.91;;;9.37;100.00
18813;BME280;9534;51.140;6.296;2023-11-21T17:03:43;67750.91;;;9.37;100.00
18813;BME280;9534;51.140;6.296;2023-11-21T17:07:48;67750.31;;;9.37;100.00
18813;BME280;9534;51.140;6.296;2023-11-21T17:11:52;67744.50;;;9.29;100.00
18813;BME280;9534;51.140;6.296;2023-11-21T17:15:58;67740.22;;;9.30;100.00
18813;BME280;9534;51.140;6.296;2023-11-21T17:20:01;67735.66;;;9.26;100.00
18813;BME280;9534;51.140;6.296;2023-11-21T17:24:12;67733.22;;;9.22;100.00
18813;BME280;9534;51.140;6.296;2023-11-21T17:28:15;67731.94;;;9.18;100.00
18813;BME280;9534;51.140;6.296;2023-11-21T17:32:19;67724.69;;;9.14;100.00
18813;BME280;9534;51.140;6.296;2023-11-21T17:36:23;67730.81;;;9.17;100.00
18813;BME280;9534;51.140;6.296;2023-11-21T17:40:30;67719.53;;;9.10;100.00
18813;BME280;9534;51.140;6.296;2023-11-21T17:44:33;67708.31;;;9.02;100.00
18813;BME280;9534;51.140;6.296;2023-11-21T17:48:37;67696.59;;;8.87;100.00
18813;BME280;9534;51.140;6.296;2023-11-21T17:52:42;67689.78;;;8.81;100.00
18813;BME280;9534;51.140;6.296;2023-11-21T17:56:47;67684.50;;;8.74;100.00
18813;BME280;9534;51.140;6.296;2023-11-21T18:00:51;67658.72;;;8.59;100.00
18813;BME280;9534;51.140;6.296;2023-11-21T18:04:54;67651.03;;;8.48;100.00
18813;BME280;9534;51.140;6.296;2023-11-21T18:08:58;67619.41;;;8.25;100.00
18813;BME280;9534;51.140;6.296;2023-11-21T18:13:04;67581.84;;;7.92;100.00
18813;BME280;9534;51.140;6.296;2023-11-21T18:17:07;67571.16;;;7.75;100.00
18813;BME280;9534;51.140;6.296;2023-11-21T18:21:10;67545.44;;;7.60;100.00
18813;BME280;9534;51.140;6.296;2023-11-21T18:25:14;67546.69;;;7.54;100.00
18813;BME280;9534;51.140;6.296;2023-11-21T18:29:21;67529.75;;;7.41;100.00
18813;BME280;9534;51.140;6.296;2023-11-21T18:33:24;67518.94;;;7.32;100.00
18813;BME280;9534;51.140;6.296;2023-11-21T18:37:27;67512.53;;;7.24;100.00
18813;BME280;9534;51.140;6.296;2023-11-21T18:41:31;67492.53;;;7.14;100.00
18813;BME280;9534;51.140;6.296;2023-11-21T18:45:36;67497.91;;;7.14;100.00
18813;BME280;9534;51.140;6.296;2023-11-21T18:49:39;67496.19;;;7.12;100.00
18813;BME280;9534;51.140;6.296;2023-11-21T18:53:43;67499.78;;;7.18;100.00
18813;BME280;9534;51.140;6.296;2023-11-21T18:57:47;67499.34;;;7.20;100.00
18813;BME280;9534;51.140;6.296;2023-11-21T19:01:52;67504.16;;;7.19;100.00
18813;BME280;9534;51.140;6.296;2023-11-21T19:05:56;67509.13;;;7.21;100.00
18813;BME280;9534;51.140;6.296;2023-11-21T19:09:59;67508.72;;;7.23;100.00
18813;BME280;9534;51.140;6.296;2023-11-21T19:14:02;67492.38;;;7.11;100.00
18813;BME280;9534;51.140;6.296;2023-11-21T19:18:06;67486.38;;;7.01;100.00
18813;BME280;9534;51.140;6.296;2023-11-21T19:22:10;67480.84;;;6.99;100.00
18813;BME280;9534;51.140;6.296;2023-11-21T19:26:13;67474.88;;;6.98;100.00
18813;BME280;9534;51.140;6.296;2023-11-21T19:30:17;67476.28;;;6.95;100.00
18813;BME280;9534;51.140;6.296;2023-11-21T19:34:22;67471.16;;;6.90;100.00
18813;BME280;9534;51.140;6.296;2023-11-21T19:38:27;67454.25;;;6.78;100.00
18813;BME280;9534;51.140;6.296;2023-11-21T19:42:30;67446.72;;;6.69;100.00
18813;BME280;9534;51.140;6.296;2023-11-21T19:46:33;67431.94;;;6.56;100.00
18813;BME280;9534;51.140;6.296;2023-11-21T19:50:37;67425.69;;;6.50;100.00
18813;BME280;9534;51.140;6.296;2023-11-21T19:54:40;67414.75;;;6.38;100.00
18813;BME280;9534;51.140;6.296;2023-11-21T19:58:43;67402.94;;;6.30;100.00
18813;BME280;9534;51.140;6.296;2023-11-21T20:02:46;67399.53;;;6.27;100.00
18813;BME280;9534;51.140;6.296;2023-11-21T20:06:52;67401.81;;;6.29;100.00
18813;BME280;9534;51.140;6.296;2023-11-21T20:10:58;67410.06;;;6.32;100.00
18813;BME280;9534;51.140;6.296;2023-11-21T20:15:01;67403.25;;;6.35;100.00
18813;BME280;9534;51.140;6.296;2023-11-21T20:19:06;67413.78;;;6.40;100.00
18813;BME280;9534;51.140;6.296;2023-11-21T20:23:11;67410.91;;;6.37;100.00
18813;BME280;9534;51.140;6.296;2023-11-21T20:27:14;67411.63;;;6.40;100.00
18813;BME280;9534;51.140;6.296;2023-11-21T20:31:19;67422.69;;;6.45;100.00
18813;BME280;9534;51.140;6.296;2023-11-21T20:35:22;67417.31;;;6.45;100.00
18813;BME280;9534;51.140;6.296;2023-11-21T20:39:27;67418.72;;;6.42;100.00
18813;BME280;9534;51.140;6.296;2023-11-21T20:43:30;67412.06;;;6.38;100.00
18813;BME280;9534;51.140;6.296;2023-11-21T20:47:34;67415.75;;;6.37;100.00
18813;BME280;9534;51.140;6.296;2023-11-21T20:51:38;67398.72;;;6.31;100.00
18813;BME280;9534;51.140;6.296;2023-11-21T20:55:42;67389.31;;;6.18;100.00
18813;BME280;9534;51.140;6.296;2023-11-21T20:59:50;67384.75;;;6.14;100.00
18813;BME280;9534;51.140;6.296;2023-11-21T21:03:54;67372.28;;;6.04;100.00
18813;BME280;9534;51.140;6.296;2023-11-21T21:07:58;67362.47;;;5.93;100.00
18813;BME280;9534;51.140;6.296;2023-11-21T21:12:02;67354.50;;;5.86;100.00
18813;BME280;9534;51.140;6.296;2023-11-21T21:16:06;67341.59;;;5.77;100.00
18813;BME280;9534;51.140;6.296;2023-11-21T21:20:09;67343.56;;;5.74;100.00
18813;BME280;9534;51.140;6.296;2023-11-21T21:24:13;67342.44;;;5.82;100.00
18813;BME280;9534;51.140;6.296;2023-11-21T21:28:20;67348.97;;;5.83;100.00
18813;BME280;9534;51.140;6.296;2023-11-21T21:32:23;67350.66;;;5.85;100.00
18813;BME280;9534;51.140;6.296;2023-11-21T21:36:26;67361.91;;;5.92;100.00
18813;BME280;9534;51.140;6.296;2023-11-21T21:40:29;67365.06;;;6.00;100.00
18813;BME280;9534;51.140;6.296;2023-11-21T21:44:36;67367.75;;;6.00;100.00
18813;BME280;9534;51.140;6.296;2023-11-21T21:48:40;67373.69;;;6.10;100.00
18813;BME280;9534;51.140;6.296;2023-11-21T21:52:44;67382.50;;;6.13;100.00
18813;BME280;9534;51.140;6.296;2023-11-21T21:56:47;67382.50;;;6.13;100.00